createdAt,value
2018-08-18T00:00:47.245Z,994.03
2018-08-18T00:01:47.393Z,994.04
2018-08-18T00:02:47.535Z,994.05
2018-08-18T00:03:47.676Z,994.07
2018-08-18T00:04:47.816Z,994.09
2018-08-18T00:05:47.967Z,994.14
2018-08-18T00:06:48.112Z,994.17
2018-08-18T00:07:48.254Z,994.22
2018-08-18T00:08:48.387Z,994.27
2018-08-18T00:09:48.532Z,994.23
2018-08-18T00:10:48.681Z,994.26
2018-08-18T00:11:48.817Z,994.29
2018-08-18T00:12:48.963Z,994.28
2018-08-18T00:13:49.099Z,994.27
2018-08-18T00:14:49.237Z,994.24
2018-08-18T00:15:49.367Z,994.20
2018-08-18T00:16:49.529Z,994.19
2018-08-18T00:17:49.670Z,994.17
2018-08-18T00:18:49.804Z,994.20
2018-08-18T00:19:49.949Z,994.23
2018-08-18T00:20:50.087Z,994.23
2018-08-18T00:21:50.232Z,994.25
2018-08-18T00:22:50.366Z,994.25
2018-08-18T00:23:50.515Z,994.24
2018-08-18T00:24:50.651Z,994.26
2018-08-18T00:25:50.806Z,994.25
2018-08-18T00:26:50.949Z,994.22
2018-08-18T00:27:51.099Z,994.25
2018-08-18T00:28:51.238Z,994.22
2018-08-18T00:29:51.351Z,994.26
2018-08-18T00:30:51.483Z,994.25
2018-08-18T00:31:51.629Z,994.26
2018-08-18T00:32:51.767Z,994.26
2018-08-18T00:33:51.910Z,994.24
2018-08-18T00:34:52.067Z,994.25
2018-08-18T00:35:52.204Z,994.25
2018-08-18T00:36:52.420Z,994.23
2018-08-18T00:37:52.512Z,994.23
2018-08-18T00:38:52.654Z,994.20
2018-08-18T00:39:52.793Z,994.16
2018-08-18T00:40:52.939Z,994.18
2018-08-18T00:41:53.135Z,994.13
2018-08-18T00:42:53.218Z,994.14
2018-08-18T00:43:53.356Z,994.12
2018-08-18T00:44:53.500Z,994.12
2018-08-18T00:45:53.660Z,994.10
2018-08-18T00:46:53.798Z,994.10
2018-08-18T00:47:53.942Z,994.13
2018-08-18T00:48:54.087Z,994.12
2018-08-18T00:49:54.265Z,994.14
2018-08-18T00:50:54.407Z,994.13
2018-08-18T00:51:54.546Z,994.16
2018-08-18T00:52:54.701Z,994.15
2018-08-18T00:53:54.837Z,994.15
2018-08-18T00:54:54.984Z,994.14
2018-08-18T00:55:56.711Z,994.14
2018-08-18T00:56:58.128Z,994.14
2018-08-18T00:57:55.380Z,994.14
2018-08-18T00:58:55.524Z,994.18
2018-08-18T00:59:55.663Z,994.20
2018-08-18T01:00:55.803Z,994.18
2018-08-18T01:01:55.944Z,994.21
2018-08-18T01:02:56.091Z,994.26
2018-08-18T01:03:56.232Z,994.27
2018-08-18T01:04:56.375Z,994.29
2018-08-18T01:05:56.518Z,994.29
2018-08-18T01:06:56.662Z,994.28
2018-08-18T01:07:56.804Z,994.26
2018-08-18T01:08:56.948Z,994.23
2018-08-18T01:09:57.090Z,994.17
2018-08-18T01:10:57.317Z,994.17
2018-08-18T01:11:57.543Z,994.17
2018-08-18T01:12:57.656Z,994.24
2018-08-18T01:13:57.722Z,994.28
2018-08-18T01:14:57.983Z,994.35
2018-08-18T01:15:57.981Z,994.35
2018-08-18T01:16:58.128Z,994.40
2018-08-18T01:17:58.269Z,994.41
2018-08-18T01:18:58.411Z,994.42
2018-08-18T01:19:58.551Z,994.45
2018-08-18T01:20:58.688Z,994.44
2018-08-18T01:21:58.832Z,994.43
2018-08-18T01:22:58.972Z,994.45
2018-08-18T01:23:59.123Z,994.49
2018-08-18T01:24:59.259Z,994.48
2018-08-18T01:25:59.407Z,994.44
2018-08-18T01:26:59.575Z,994.43
2018-08-18T01:27:59.706Z,994.43
2018-08-18T01:28:59.853Z,994.42
2018-08-18T01:30:00.008Z,994.42
2018-08-18T01:31:00.142Z,994.43
2018-08-18T01:32:00.280Z,994.43
2018-08-18T01:33:00.461Z,994.41
2018-08-18T01:34:00.543Z,994.46
2018-08-18T01:35:00.675Z,994.50
2018-08-18T01:36:00.816Z,994.50
2018-08-18T01:37:00.995Z,994.51
2018-08-18T01:38:01.127Z,994.48
2018-08-18T01:39:01.274Z,994.48
2018-08-18T01:40:01.438Z,994.49
2018-08-18T01:41:01.570Z,994.46
2018-08-18T01:42:01.704Z,994.50
2018-08-18T01:43:01.869Z,994.45
2018-08-18T01:44:02.006Z,994.48
2018-08-18T01:45:02.148Z,994.46
2018-08-18T01:46:02.296Z,994.47
2018-08-18T01:47:02.437Z,994.45
2018-08-18T01:48:02.581Z,994.43
2018-08-18T01:49:02.716Z,994.44
2018-08-18T01:50:02.879Z,994.46
2018-08-18T01:51:03.011Z,994.49
2018-08-18T01:52:03.152Z,994.51
2018-08-18T01:53:03.299Z,994.53
2018-08-18T01:54:03.477Z,994.55
2018-08-18T01:55:03.606Z,994.54
2018-08-18T01:56:03.743Z,994.53
2018-08-18T01:57:03.886Z,994.54
2018-08-18T01:58:04.053Z,994.49
2018-08-18T01:59:04.187Z,994.47
2018-08-18T02:00:04.329Z,994.53
2018-08-18T02:01:04.461Z,994.55
2018-08-18T02:02:04.623Z,994.53
2018-08-18T02:03:04.753Z,994.51
2018-08-18T02:04:04.898Z,994.53
2018-08-18T02:05:05.039Z,994.50
2018-08-18T02:06:05.175Z,994.51
2018-08-18T02:07:05.309Z,994.51
2018-08-18T02:08:05.448Z,994.50
2018-08-18T02:09:05.591Z,994.50
2018-08-18T02:10:05.730Z,994.50
2018-08-18T02:11:05.874Z,994.48
2018-08-18T02:12:06.012Z,994.52
2018-08-18T02:13:06.148Z,994.50
2018-08-18T02:14:06.291Z,994.53
2018-08-18T02:15:06.430Z,994.51
2018-08-18T02:16:06.600Z,994.55
2018-08-18T02:17:06.717Z,994.53
2018-08-18T02:18:06.860Z,994.55
2018-08-18T02:19:07.004Z,994.55
2018-08-18T02:20:07.234Z,994.55
2018-08-18T02:21:07.280Z,994.63
2018-08-18T02:22:07.422Z,994.59
2018-08-18T02:23:07.566Z,994.58
2018-08-18T02:24:07.699Z,994.64
2018-08-18T02:25:07.845Z,994.54
2018-08-18T02:26:07.983Z,994.59
2018-08-18T02:27:08.126Z,994.61
2018-08-18T02:28:08.267Z,994.60
2018-08-18T02:29:08.407Z,994.57
2018-08-18T02:30:08.547Z,994.63
2018-08-18T02:31:08.686Z,994.66
2018-08-18T02:32:08.827Z,994.64
2018-08-18T02:33:08.968Z,994.67
2018-08-18T02:34:09.110Z,994.62
2018-08-18T02:35:09.837Z,994.61
2018-08-18T02:36:09.411Z,994.63
2018-08-18T02:37:09.549Z,994.60
2018-08-18T02:38:09.688Z,994.60
2018-08-18T02:39:09.826Z,994.62
2018-08-18T02:40:09.997Z,994.65
2018-08-18T02:41:10.124Z,994.61
2018-08-18T02:42:10.268Z,994.63
2018-08-18T02:43:10.404Z,994.65
2018-08-18T02:44:10.566Z,994.65
2018-08-18T02:45:10.704Z,994.63
2018-08-18T02:46:10.861Z,994.61
2018-08-18T02:47:10.987Z,994.62
2018-08-18T02:48:11.144Z,994.64
2018-08-18T02:49:11.278Z,994.62
2018-08-18T02:50:12.019Z,994.60
2018-08-18T02:51:11.591Z,994.60
2018-08-18T02:52:11.720Z,994.61
2018-08-18T02:53:11.864Z,994.62
2018-08-18T02:54:12.003Z,994.60
2018-08-18T02:55:12.156Z,994.62
2018-08-18T02:56:12.296Z,994.61
2018-08-18T02:57:12.430Z,994.66
2018-08-18T02:58:12.577Z,994.64
2018-08-18T02:59:12.722Z,994.64
2018-08-18T03:00:12.965Z,994.63
2018-08-18T03:01:12.969Z,994.62
2018-08-18T03:02:13.109Z,994.65
2018-08-18T03:03:13.284Z,994.66
2018-08-18T03:04:13.417Z,994.66
2018-08-18T03:05:13.556Z,994.69
2018-08-18T03:06:13.696Z,994.67
2018-08-18T03:07:13.841Z,994.67
2018-08-18T03:08:13.998Z,994.72
2018-08-18T03:09:14.112Z,994.71
2018-08-18T03:10:14.253Z,994.75
2018-08-18T03:11:14.416Z,994.74
2018-08-18T03:12:14.553Z,994.75
2018-08-18T03:13:14.694Z,994.67
2018-08-18T03:14:14.846Z,994.70
2018-08-18T03:15:14.979Z,994.73
2018-08-18T03:16:15.118Z,994.70
2018-08-18T03:17:15.257Z,994.71
2018-08-18T03:18:15.400Z,994.71
2018-08-18T03:19:15.536Z,994.71
2018-08-18T03:20:15.672Z,994.71
2018-08-18T03:21:15.810Z,994.72
2018-08-18T03:22:15.952Z,994.70
2018-08-18T03:23:16.087Z,994.66
2018-08-18T03:24:16.232Z,994.70
2018-08-18T03:25:16.370Z,994.67
2018-08-18T03:26:16.513Z,994.68
2018-08-18T03:27:16.653Z,994.67
2018-08-18T03:28:16.786Z,994.70
2018-08-18T03:29:16.929Z,994.71
2018-08-18T03:30:17.071Z,994.70
2018-08-18T03:31:17.216Z,994.65
2018-08-18T03:32:17.348Z,994.67
2018-08-18T03:33:17.492Z,994.66
2018-08-18T03:34:17.634Z,994.67
2018-08-18T03:35:17.769Z,994.63
2018-08-18T03:36:17.910Z,994.63
2018-08-18T03:37:18.048Z,994.63
2018-08-18T03:38:18.199Z,994.59
2018-08-18T03:39:18.344Z,994.58
2018-08-18T03:40:18.486Z,994.58
2018-08-18T03:41:18.625Z,994.53
2018-08-18T03:42:18.761Z,994.56
2018-08-18T03:43:18.912Z,994.55
2018-08-18T03:44:19.053Z,994.54
2018-08-18T03:45:19.232Z,994.61
2018-08-18T03:46:19.380Z,994.67
2018-08-18T03:47:19.533Z,994.72
2018-08-18T03:48:19.674Z,994.72
2018-08-18T03:49:19.813Z,994.81
2018-08-18T03:50:19.952Z,994.85
2018-08-18T03:51:20.093Z,994.88
2018-08-18T03:52:20.283Z,994.89
2018-08-18T03:53:20.373Z,994.91
2018-08-18T03:54:20.518Z,994.89
2018-08-18T03:55:20.646Z,994.92
2018-08-18T03:56:20.785Z,994.86
2018-08-18T03:57:20.941Z,994.91
2018-08-18T03:58:21.075Z,994.89
2018-08-18T03:59:21.215Z,994.87
2018-08-18T04:00:21.350Z,994.87
2018-08-18T04:01:21.519Z,994.89
2018-08-18T04:02:21.643Z,994.89
2018-08-18T04:03:21.783Z,994.89
2018-08-18T04:04:21.921Z,994.86
2018-08-18T04:05:22.059Z,994.87
2018-08-18T04:06:22.198Z,994.83
2018-08-18T04:07:22.354Z,994.89
2018-08-18T04:08:22.493Z,994.91
2018-08-18T04:09:22.684Z,994.92
2018-08-18T04:10:22.774Z,994.96
2018-08-18T04:11:22.918Z,994.96
2018-08-18T04:12:23.057Z,994.97
2018-08-18T04:13:23.194Z,995.00
2018-08-18T04:14:23.353Z,994.97
2018-08-18T04:15:23.484Z,994.95
2018-08-18T04:16:23.621Z,994.95
2018-08-18T04:17:23.763Z,994.97
2018-08-18T04:18:23.927Z,994.95
2018-08-18T04:19:24.065Z,994.94
2018-08-18T04:20:24.208Z,994.89
2018-08-18T04:21:24.341Z,994.94
2018-08-18T04:22:24.507Z,994.92
2018-08-18T04:23:24.641Z,994.90
2018-08-18T04:24:24.779Z,994.92
2018-08-18T04:25:24.964Z,994.92
2018-08-18T04:26:25.058Z,994.91
2018-08-18T04:27:25.193Z,994.91
2018-08-18T04:28:25.338Z,994.93
2018-08-18T04:29:25.483Z,994.94
2018-08-18T04:30:25.654Z,994.94
2018-08-18T04:31:25.790Z,994.94
2018-08-18T04:32:25.936Z,994.98
2018-08-18T04:33:26.071Z,994.94
2018-08-18T04:34:26.234Z,994.95
2018-08-18T04:35:26.393Z,994.97
2018-08-18T04:36:26.513Z,994.98
2018-08-18T04:37:26.655Z,994.97
2018-08-18T04:38:26.788Z,995.00
2018-08-18T04:39:26.931Z,995.00
2018-08-18T04:40:27.066Z,995.00
2018-08-18T04:41:27.203Z,994.99
2018-08-18T04:42:27.401Z,995.00
2018-08-18T04:43:27.540Z,995.00
2018-08-18T04:44:27.687Z,995.01
2018-08-18T04:45:27.825Z,995.03
2018-08-18T04:46:27.967Z,995.04
2018-08-18T04:47:28.101Z,995.00
2018-08-18T04:48:28.235Z,995.05
2018-08-18T04:49:28.384Z,995.06
2018-08-18T04:50:28.568Z,995.08
2018-08-18T04:51:28.663Z,995.12
2018-08-18T04:52:28.800Z,995.13
2018-08-18T04:53:28.946Z,995.12
2018-08-18T04:54:29.090Z,995.13
2018-08-18T04:55:29.231Z,995.14
2018-08-18T04:56:29.371Z,995.14
2018-08-18T04:57:29.519Z,995.13
2018-08-18T04:58:29.655Z,995.16
2018-08-18T04:59:29.899Z,995.20
2018-08-18T05:00:29.934Z,995.19
2018-08-18T05:01:30.075Z,995.18
2018-08-18T05:02:30.214Z,995.22
2018-08-18T05:03:30.428Z,995.23
2018-08-18T05:04:30.489Z,995.21
2018-08-18T05:05:30.635Z,995.27
2018-08-18T05:06:30.780Z,995.26
2018-08-18T05:07:30.919Z,995.25
2018-08-18T05:08:31.058Z,995.26
2018-08-18T05:09:31.207Z,995.23
2018-08-18T05:10:31.341Z,995.26
2018-08-18T05:11:31.511Z,995.27
2018-08-18T05:12:31.623Z,995.28
2018-08-18T05:13:31.765Z,995.31
2018-08-18T05:14:31.907Z,995.29
2018-08-18T05:15:32.051Z,995.27
2018-08-18T05:16:32.189Z,995.29
2018-08-18T05:17:32.330Z,995.28
2018-08-18T05:18:32.470Z,995.31
2018-08-18T05:19:32.608Z,995.27
2018-08-18T05:20:32.773Z,995.30
2018-08-18T05:21:32.900Z,995.30
2018-08-18T05:22:33.048Z,995.32
2018-08-18T05:23:33.190Z,995.33
2018-08-18T05:24:33.338Z,995.35
2018-08-18T05:25:33.475Z,995.33
2018-08-18T05:26:33.621Z,995.32
2018-08-18T05:27:33.749Z,995.33
2018-08-18T05:28:33.915Z,995.36
2018-08-18T05:29:34.054Z,995.35
2018-08-18T05:30:34.200Z,995.33
2018-08-18T05:31:34.325Z,995.38
2018-08-18T05:32:34.548Z,995.41
2018-08-18T05:33:34.562Z,995.40
2018-08-18T05:34:34.706Z,995.42
2018-08-18T05:35:34.859Z,995.46
2018-08-18T05:36:35.093Z,995.45
2018-08-18T05:37:35.155Z,995.48
2018-08-18T05:38:35.298Z,995.51
2018-08-18T05:39:35.442Z,995.51
2018-08-18T05:40:35.574Z,995.50
2018-08-18T05:41:35.745Z,995.53
2018-08-18T05:42:35.881Z,995.49
2018-08-18T05:43:36.038Z,995.52
2018-08-18T05:44:36.177Z,995.52
2018-08-18T05:45:36.319Z,995.50
2018-08-18T05:46:36.473Z,995.50
2018-08-18T05:47:36.704Z,995.50
2018-08-18T05:48:36.746Z,995.54
2018-08-18T05:49:36.892Z,995.57
2018-08-18T05:50:37.063Z,995.52
2018-08-18T05:51:37.202Z,995.56
2018-08-18T05:52:37.352Z,995.55
2018-08-18T05:53:37.488Z,995.54
2018-08-18T05:54:37.649Z,995.55
2018-08-18T05:55:37.788Z,995.55
2018-08-18T05:56:37.931Z,995.52
2018-08-18T05:57:38.097Z,995.54
2018-08-18T05:58:38.240Z,995.54
2018-08-18T05:59:38.386Z,995.51
2018-08-18T06:00:38.523Z,995.50
2018-08-18T06:01:38.679Z,995.43
2018-08-18T06:02:38.808Z,995.50
2018-08-18T06:03:38.945Z,995.45
2018-08-18T06:04:39.087Z,995.50
2018-08-18T06:05:39.295Z,995.50
2018-08-18T06:06:39.374Z,995.49
2018-08-18T06:07:39.516Z,995.49
2018-08-18T06:08:39.696Z,995.46
2018-08-18T06:09:39.839Z,995.50
2018-08-18T06:10:39.973Z,995.50
2018-08-18T06:11:40.111Z,995.56
2018-08-18T06:12:40.258Z,995.56
2018-08-18T06:13:40.391Z,995.58
2018-08-18T06:14:40.537Z,995.58
2018-08-18T06:15:40.671Z,995.59
2018-08-18T06:16:40.807Z,995.62
2018-08-18T06:17:40.983Z,995.60
2018-08-18T06:18:41.128Z,995.58
2018-08-18T06:19:41.269Z,995.59
2018-08-18T06:20:41.438Z,995.60
2018-08-18T06:21:41.579Z,995.59
2018-08-18T06:22:41.725Z,995.60
2018-08-18T06:23:41.863Z,995.64
2018-08-18T06:24:42.009Z,995.64
2018-08-18T06:25:42.149Z,995.65
2018-08-18T06:26:42.291Z,995.69
2018-08-18T06:27:42.441Z,995.72
2018-08-18T06:28:42.591Z,995.73
2018-08-18T06:29:42.729Z,995.73
2018-08-18T06:30:42.861Z,995.68
2018-08-18T06:31:43.028Z,995.71
2018-08-18T06:32:43.233Z,995.70
2018-08-18T06:33:43.258Z,995.71
2018-08-18T06:34:43.509Z,995.70
2018-08-18T06:35:43.563Z,995.74
2018-08-18T06:36:43.702Z,995.76
2018-08-18T06:37:43.839Z,995.75
2018-08-18T06:38:43.976Z,995.75
2018-08-18T06:39:44.128Z,995.73
2018-08-18T06:40:44.262Z,995.75
2018-08-18T06:41:44.492Z,995.75
2018-08-18T06:42:44.542Z,995.75
2018-08-18T06:43:44.706Z,995.72
2018-08-18T06:44:44.844Z,995.77
2018-08-18T06:45:44.985Z,995.76
2018-08-18T06:46:45.161Z,995.75
2018-08-18T06:47:45.290Z,995.77
2018-08-18T06:48:45.434Z,995.79
2018-08-18T06:49:45.573Z,995.78
2018-08-18T06:50:45.740Z,995.80
2018-08-18T06:51:45.877Z,995.79
2018-08-18T06:52:46.012Z,995.80
2018-08-18T06:53:46.162Z,995.81
2018-08-18T06:54:46.370Z,995.80
2018-08-18T06:55:46.482Z,995.78
2018-08-18T06:56:46.617Z,995.82
2018-08-18T06:57:46.766Z,995.78
2018-08-18T06:58:46.937Z,995.74
2018-08-18T06:59:47.075Z,995.77
2018-08-18T07:00:47.223Z,995.74
2018-08-18T07:01:47.359Z,995.74
2018-08-18T07:02:47.510Z,995.74
2018-08-18T07:03:47.643Z,995.75
2018-08-18T07:04:47.783Z,995.71
2018-08-18T07:05:47.926Z,995.73
2018-08-18T07:06:48.086Z,995.71
2018-08-18T07:07:48.220Z,995.68
2018-08-18T07:08:48.365Z,995.75
2018-08-18T07:09:48.532Z,995.73
2018-08-18T07:10:48.717Z,995.75
2018-08-18T07:11:48.862Z,995.77
2018-08-18T07:12:48.999Z,995.75
2018-08-18T07:13:49.140Z,995.78
2018-08-18T07:14:49.284Z,995.76
2018-08-18T07:15:49.425Z,995.79
2018-08-18T07:16:49.563Z,995.78
2018-08-18T07:17:49.707Z,995.77
2018-08-18T07:18:49.854Z,995.75
2018-08-18T07:19:49.992Z,995.76
2018-08-18T07:20:50.133Z,995.78
2018-08-18T07:21:50.273Z,995.79
2018-08-18T07:22:50.412Z,995.78
2018-08-18T07:23:50.557Z,995.85
2018-08-18T07:24:50.694Z,995.84
2018-08-18T07:25:50.838Z,995.85
2018-08-18T07:26:50.978Z,995.84
2018-08-18T07:27:51.118Z,995.84
2018-08-18T07:28:51.391Z,995.83
2018-08-18T07:29:51.425Z,995.85
2018-08-18T07:30:51.546Z,995.87
2018-08-18T07:31:51.687Z,995.87
2018-08-18T07:32:51.829Z,995.87
2018-08-18T07:33:51.968Z,995.89
2018-08-18T07:34:52.111Z,995.87
2018-08-18T07:35:52.249Z,995.92
2018-08-18T07:36:52.424Z,995.90
2018-08-18T07:37:52.559Z,995.89
2018-08-18T07:38:52.701Z,995.90
2018-08-18T07:39:52.836Z,995.93
2018-08-18T07:40:52.990Z,995.91
2018-08-18T07:41:53.135Z,995.93
2018-08-18T07:42:53.275Z,995.89
2018-08-18T07:43:53.421Z,995.92
2018-08-18T07:44:53.601Z,995.90
2018-08-18T07:45:53.731Z,995.93
2018-08-18T07:46:53.876Z,995.97
2018-08-18T07:47:54.015Z,995.99
2018-08-18T07:48:54.186Z,995.96
2018-08-18T07:49:54.324Z,995.99
2018-08-18T07:50:54.489Z,995.95
2018-08-18T07:51:54.632Z,995.99
2018-08-18T07:52:54.765Z,996.04
2018-08-18T07:53:54.908Z,995.97
2018-08-18T07:54:55.085Z,996.03
2018-08-18T07:55:55.221Z,996.00
2018-08-18T07:56:55.402Z,996.05
2018-08-18T07:57:55.531Z,996.05
2018-08-18T07:58:55.672Z,996.06
2018-08-18T07:59:55.869Z,996.06
2018-08-18T08:00:55.967Z,996.07
2018-08-18T08:01:56.110Z,996.07
2018-08-18T08:02:56.266Z,996.05
2018-08-18T08:03:56.404Z,996.07
2018-08-18T08:04:56.542Z,996.07
2018-08-18T08:05:56.696Z,996.08
2018-08-18T08:06:56.827Z,996.06
2018-08-18T08:07:56.972Z,996.03
2018-08-18T08:08:57.111Z,996.03
2018-08-18T08:09:57.261Z,996.05
2018-08-18T08:10:57.402Z,996.02
2018-08-18T08:11:57.547Z,996.03
2018-08-18T08:12:57.764Z,996.01
2018-08-18T08:13:57.831Z,996.02
2018-08-18T08:14:57.974Z,996.03
2018-08-18T08:15:58.115Z,996.00
2018-08-18T08:16:58.256Z,996.01
2018-08-18T08:17:58.394Z,995.99
2018-08-18T08:18:58.535Z,995.99
2018-08-18T08:19:58.681Z,996.02
2018-08-18T08:20:58.826Z,995.99
2018-08-18T08:21:58.965Z,996.00
2018-08-18T08:22:59.108Z,995.98
2018-08-18T08:23:59.245Z,996.00
2018-08-18T08:24:59.391Z,995.95
2018-08-18T08:25:59.538Z,995.98
2018-08-18T08:26:59.682Z,995.98
2018-08-18T08:27:59.823Z,995.98
2018-08-18T08:28:59.962Z,995.98
2018-08-18T08:30:00.107Z,996.01
2018-08-18T08:31:00.255Z,996.04
2018-08-18T08:32:00.394Z,996.00
2018-08-18T08:33:00.541Z,996.03
2018-08-18T08:34:00.691Z,996.04
2018-08-18T08:35:00.831Z,996.01
2018-08-18T08:36:00.972Z,996.04
2018-08-18T08:37:01.134Z,996.05
2018-08-18T08:38:01.311Z,996.02
2018-08-18T08:39:01.460Z,996.01
2018-08-18T08:40:01.598Z,996.01
2018-08-18T08:41:01.775Z,995.98
2018-08-18T08:42:01.933Z,995.98
2018-08-18T08:43:02.061Z,996.00
2018-08-18T08:44:02.203Z,996.00
2018-08-18T08:45:02.703Z,995.97
2018-08-18T08:46:02.510Z,995.99
2018-08-18T08:47:02.544Z,995.96
2018-08-18T08:48:02.687Z,995.94
2018-08-18T08:49:02.905Z,995.95
2018-08-18T08:50:03.867Z,995.94
2018-08-18T08:52:35.312Z,995.91
2018-08-18T08:53:35.449Z,995.93
2018-08-18T08:54:35.594Z,995.93
2018-08-18T08:55:35.739Z,995.92
2018-08-18T08:56:35.885Z,995.93
2018-08-18T08:57:36.022Z,995.92
2018-08-18T08:58:36.168Z,995.93
2018-08-18T08:59:36.346Z,995.93
2018-08-18T09:00:36.482Z,995.94
2018-08-18T09:01:36.619Z,995.95
2018-08-18T09:02:36.761Z,995.90
2018-08-18T09:03:36.899Z,995.90
2018-08-18T09:04:37.064Z,995.91
2018-08-18T09:05:37.205Z,995.91
2018-08-18T09:06:37.349Z,995.93
2018-08-18T09:07:37.491Z,995.94
2018-08-18T09:08:37.678Z,995.95
2018-08-18T09:09:37.815Z,995.95
2018-08-18T09:10:37.957Z,995.96
2018-08-18T09:11:38.095Z,995.96
2018-08-18T09:12:38.259Z,995.97
2018-08-18T09:13:38.398Z,995.99
2018-08-18T09:14:38.539Z,995.98
2018-08-18T09:15:38.691Z,995.99
2018-08-18T09:16:38.821Z,995.95
2018-08-18T09:17:38.964Z,995.94
2018-08-18T09:18:39.110Z,995.98
2018-08-18T09:19:39.234Z,995.90
2018-08-18T09:20:39.373Z,995.93
2018-08-18T09:21:39.520Z,995.95
2018-08-18T09:22:39.664Z,995.93
2018-08-18T09:23:40.556Z,995.95
2018-08-18T09:24:39.960Z,995.99
2018-08-18T09:25:40.108Z,995.97
2018-08-18T09:26:40.252Z,995.99
2018-08-18T09:27:40.394Z,995.98
2018-08-18T09:28:40.535Z,995.99
2018-08-18T09:29:40.674Z,995.95
2018-08-18T09:30:40.816Z,995.96
2018-08-18T09:31:40.969Z,995.98
2018-08-18T09:32:41.328Z,995.96
2018-08-18T09:33:41.271Z,995.94
2018-08-18T09:34:41.446Z,995.95
2018-08-18T09:35:41.584Z,995.96
2018-08-18T09:36:41.722Z,995.95
2018-08-18T09:37:41.872Z,995.95
2018-08-18T09:38:42.009Z,995.96
2018-08-18T09:39:42.148Z,995.95
2018-08-18T09:40:42.290Z,995.94
2018-08-18T09:41:42.463Z,995.92
2018-08-18T09:42:42.605Z,995.91
2018-08-18T09:43:42.741Z,995.95
2018-08-18T09:44:42.909Z,995.94
2018-08-18T09:45:43.042Z,995.91
2018-08-18T09:46:43.203Z,995.94
2018-08-18T09:47:43.363Z,995.91
2018-08-18T09:48:43.498Z,995.94
2018-08-18T09:49:43.679Z,995.93
2018-08-18T09:50:43.796Z,995.93
2018-08-18T09:51:43.972Z,995.92
2018-08-18T09:52:44.042Z,995.90
2018-08-18T09:53:44.180Z,995.90
2018-08-18T09:54:44.323Z,995.91
2018-08-18T09:55:44.464Z,995.91
2018-08-18T09:56:44.615Z,995.91
2018-08-18T09:57:44.751Z,995.84
2018-08-18T09:58:44.900Z,995.85
2018-08-18T09:59:45.037Z,995.87
2018-08-18T10:00:45.181Z,995.86
2018-08-18T10:01:46.296Z,995.85
2018-08-18T10:02:45.502Z,995.87
2018-08-18T10:03:45.658Z,995.81
2018-08-18T10:04:45.802Z,995.82
2018-08-18T10:05:45.936Z,995.85
2018-08-18T10:06:46.106Z,995.81
2018-08-18T10:07:46.222Z,995.86
2018-08-18T10:08:46.365Z,995.83
2018-08-18T10:09:46.509Z,995.81
2018-08-18T10:10:46.650Z,995.87
2018-08-18T10:11:46.792Z,995.84
2018-08-18T10:12:46.940Z,995.77
2018-08-18T10:13:47.709Z,995.77
2018-08-18T10:14:47.214Z,995.75
2018-08-18T10:15:47.367Z,995.75
2018-08-18T10:16:47.542Z,995.72
2018-08-18T10:17:47.681Z,995.72
2018-08-18T10:18:47.826Z,995.74
2018-08-18T10:19:47.989Z,995.75
2018-08-18T10:20:48.121Z,995.72
2018-08-18T10:21:48.266Z,995.75
2018-08-18T10:22:48.426Z,995.73
2018-08-18T10:23:53.721Z,995.77
2018-08-18T10:24:48.683Z,995.74
2018-08-18T10:25:49.718Z,995.76
2018-08-18T10:26:49.413Z,995.74
2018-08-18T10:27:51.909Z,995.75
2018-08-18T10:28:54.756Z,995.76
2018-08-18T10:29:49.520Z,995.76
2018-08-18T10:30:50.068Z,995.76
2018-08-18T10:31:49.827Z,995.77
2018-08-18T10:32:49.998Z,995.78
2018-08-18T10:33:50.141Z,995.76
2018-08-18T10:34:50.280Z,995.73
2018-08-18T10:35:52.773Z,995.73
2018-08-18T10:36:50.623Z,995.73
2018-08-18T10:37:50.659Z,995.73
2018-08-18T10:38:50.798Z,995.74
2018-08-18T10:39:50.940Z,995.73
2018-08-18T10:40:51.143Z,995.73
2018-08-18T10:41:51.233Z,995.77
2018-08-18T10:42:51.710Z,995.70
2018-08-18T10:43:51.753Z,995.72
2018-08-18T10:44:51.517Z,995.74
2018-08-18T10:45:51.655Z,995.69
2018-08-18T10:46:51.795Z,995.68
2018-08-18T10:47:51.940Z,995.69
2018-08-18T10:48:52.082Z,995.66
2018-08-18T10:49:52.257Z,995.67
2018-08-18T10:50:52.397Z,995.68
2018-08-18T10:51:52.537Z,995.60
2018-08-18T10:52:52.695Z,995.64
2018-08-18T10:53:52.830Z,995.64
2018-08-18T10:54:52.980Z,995.63
2018-08-18T10:55:53.131Z,995.66
2018-08-18T10:56:53.264Z,995.63
2018-08-18T10:57:53.413Z,995.57
2018-08-18T10:58:53.570Z,995.57
2018-08-18T10:59:53.710Z,995.69
2018-08-18T11:00:53.854Z,995.70
2018-08-18T11:01:54.021Z,995.60
2018-08-18T11:02:54.158Z,995.62
2018-08-18T11:03:54.320Z,995.66
2018-08-18T11:04:54.442Z,995.61
2018-08-18T11:05:54.594Z,995.65
2018-08-18T11:06:54.737Z,995.65
2018-08-18T11:07:54.892Z,995.61
2018-08-18T11:08:55.067Z,995.82
2018-08-18T11:09:55.217Z,995.77
2018-08-18T11:10:55.348Z,995.77
2018-08-18T11:11:55.514Z,995.64
2018-08-18T11:12:55.667Z,995.65
2018-08-18T11:13:55.826Z,995.66
2018-08-18T11:14:55.968Z,995.76
2018-08-18T11:15:56.111Z,995.75
2018-08-18T11:16:56.281Z,995.77
2018-08-18T11:17:56.416Z,995.88
2018-08-18T11:18:56.562Z,995.85
2018-08-18T11:19:56.724Z,995.69
2018-08-18T11:20:56.871Z,995.60
2018-08-18T11:21:57.084Z,995.66
2018-08-18T11:22:57.170Z,995.68
2018-08-18T11:23:57.320Z,995.71
2018-08-18T11:24:57.470Z,995.73
2018-08-18T11:25:57.615Z,995.78
2018-08-18T11:26:57.760Z,995.78
2018-08-18T11:27:57.896Z,995.73
2018-08-18T11:28:58.061Z,995.62
2018-08-18T11:29:58.202Z,995.60
2018-08-18T11:30:58.338Z,995.59
2018-08-18T11:31:58.476Z,995.68
2018-08-18T11:32:58.620Z,995.58
2018-08-18T11:33:58.766Z,995.56
2018-08-18T11:34:58.909Z,995.58
2018-08-18T11:35:59.051Z,995.60
2018-08-18T11:36:59.193Z,995.59
2018-08-18T11:37:59.338Z,995.74
2018-08-18T11:38:59.487Z,995.53
2018-08-18T11:39:59.624Z,995.76
2018-08-18T11:40:59.769Z,995.54
2018-08-18T11:41:59.914Z,995.50
2018-08-18T11:43:00.057Z,995.60
2018-08-18T11:44:00.206Z,995.71
2018-08-18T11:45:00.357Z,995.47
2018-08-18T11:46:00.497Z,995.66
2018-08-18T11:47:00.658Z,995.69
2018-08-18T11:48:00.787Z,995.47
2018-08-18T11:49:00.940Z,995.61
2018-08-18T11:50:01.080Z,995.63
2018-08-18T11:51:01.222Z,995.60
2018-08-18T11:52:01.363Z,995.60
2018-08-18T11:53:01.503Z,995.41
2018-08-18T11:54:01.653Z,995.40
2018-08-18T11:55:01.794Z,995.50
2018-08-18T11:56:01.960Z,995.44
2018-08-18T11:57:02.095Z,995.43
2018-08-18T11:58:02.250Z,995.42
2018-08-18T11:59:02.376Z,995.40
2018-08-18T12:00:02.551Z,995.36
2018-08-18T12:01:02.720Z,995.38
2018-08-18T12:02:02.876Z,995.36
2018-08-18T12:03:03.018Z,995.32
2018-08-18T12:04:03.162Z,995.29
2018-08-18T12:05:03.312Z,995.31
2018-08-18T12:06:03.461Z,995.35
2018-08-18T12:07:03.615Z,995.32
2018-08-18T12:08:03.803Z,995.29
2018-08-18T12:09:03.899Z,995.31
2018-08-18T12:10:04.047Z,995.31
2018-08-18T12:11:04.254Z,995.33
2018-08-18T12:12:04.333Z,995.36
2018-08-18T12:13:04.471Z,995.32
2018-08-18T12:14:04.628Z,995.30
2018-08-18T12:15:04.773Z,995.29
2018-08-18T12:16:04.921Z,995.29
2018-08-18T12:17:05.075Z,995.28
2018-08-18T12:18:05.236Z,995.26
2018-08-18T12:19:05.379Z,995.32
2018-08-18T12:20:05.520Z,995.28
2018-08-18T12:21:05.672Z,995.20
2018-08-18T12:22:05.826Z,995.21
2018-08-18T12:23:05.974Z,995.28
2018-08-18T12:24:06.119Z,995.23
2018-08-18T12:25:06.263Z,995.18
2018-08-18T12:26:06.403Z,995.14
2018-08-18T12:27:06.550Z,995.16
2018-08-18T12:28:06.706Z,995.13
2018-08-18T12:29:06.851Z,995.13
2018-08-18T12:30:07.078Z,995.15
2018-08-18T12:31:07.162Z,995.18
2018-08-18T12:32:07.316Z,995.18